sensor_id;sensor_type;location;lat;lon;timestamp;P1;durP1;ratioP1;P2;durP2;ratioP2
2299;SDS011;1158;48.750;9.078;2022-09-20T00:01:27;8.50;;;4.73;;
2299;SDS011;1158;48.750;9.078;2022-09-20T00:03:57;8.53;;;4.90;;
2299;SDS011;1158;48.750;9.078;2022-09-20T00:06:26;8.80;;;5.10;;
2299;SDS011;1158;48.750;9.078;2022-09-20T00:08:54;10.23;;;5.20;;
2299;SDS011;1158;48.750;9.078;2022-09-20T00:11:22;8.80;;;4.97;;
2299;SDS011;1158;48.750;9.078;2022-09-20T00:13:52;9.60;;;4.83;;
2299;SDS011;1158;48.750;9.078;2022-09-20T00:16:21;10.73;;;5.00;;
2299;SDS011;1158;48.750;9.078;2022-09-20T00:18:50;13.80;;;3.93;;
2299;SDS011;1158;48.750;9.078;2022-09-20T00:21:20;8.67;;;4.83;;
2299;SDS011;1158;48.750;9.078;2022-09-20T00:23:48;7.40;;;4.30;;
2299;SDS011;1158;48.750;9.078;2022-09-20T00:26:16;8.00;;;5.20;;
2299;SDS011;1158;48.750;9.078;2022-09-20T00:28:43;9.17;;;4.80;;
2299;SDS011;1158;48.750;9.078;2022-09-20T00:31:12;7.63;;;4.60;;
2299;SDS011;1158;48.750;9.078;2022-09-20T00:33:39;12.10;;;4.80;;
2299;SDS011;1158;48.750;9.078;2022-09-20T00:36:23;5.63;;;3.60;;
2299;SDS011;1158;48.750;9.078;2022-09-20T00:38:53;12.77;;;4.70;;
2299;SDS011;1158;48.750;9.078;2022-09-20T00:41:20;6.40;;;4.67;;
2299;SDS011;1158;48.750;9.078;2022-09-20T00:43:47;6.93;;;4.67;;
2299;SDS011;1158;48.750;9.078;2022-09-20T00:46:18;8.70;;;5.10;;
2299;SDS011;1158;48.750;9.078;2022-09-20T00:48:48;8.03;;;4.90;;
2299;SDS011;1158;48.750;9.078;2022-09-20T00:51:19;10.53;;;4.83;;
2299;SDS011;1158;48.750;9.078;2022-09-20T00:53:50;8.60;;;5.73;;
2299;SDS011;1158;48.750;9.078;2022-09-20T00:56:21;13.20;;;4.70;;
2299;SDS011;1158;48.750;9.078;2022-09-20T00:58:52;8.77;;;4.80;;
2299;SDS011;1158;48.750;9.078;2022-09-20T01:01:25;13.10;;;5.37;;
2299;SDS011;1158;48.750;9.078;2022-09-20T01:03:52;8.43;;;4.33;;
2299;SDS011;1158;48.750;9.078;2022-09-20T01:06:19;8.37;;;4.67;;
2299;SDS011;1158;48.750;9.078;2022-09-20T01:08:47;9.20;;;4.47;;
2299;SDS011;1158;48.750;9.078;2022-09-20T01:11:16;16.83;;;4.73;;
2299;SDS011;1158;48.750;9.078;2022-09-20T01:13:43;7.83;;;4.03;;
2299;SDS011;1158;48.750;9.078;2022-09-20T01:16:10;9.27;;;4.30;;
2299;SDS011;1158;48.750;9.078;2022-09-20T01:18:41;11.03;;;4.43;;
2299;SDS011;1158;48.750;9.078;2022-09-20T01:21:09;6.97;;;4.70;;
2299;SDS011;1158;48.750;9.078;2022-09-20T01:23:43;18.00;;;4.97;;
2299;SDS011;1158;48.750;9.078;2022-09-20T01:26:23;8.07;;;3.93;;
2299;SDS011;1158;48.750;9.078;2022-09-20T01:29:02;15.10;;;4.67;;
2299;SDS011;1158;48.750;9.078;2022-09-20T01:31:39;9.70;;;4.07;;
2299;SDS011;1158;48.750;9.078;2022-09-20T01:34:11;13.10;;;4.77;;
2299;SDS011;1158;48.750;9.078;2022-09-20T01:36:42;13.33;;;4.70;;
2299;SDS011;1158;48.750;9.078;2022-09-20T01:39:14;7.33;;;4.40;;
2299;SDS011;1158;48.750;9.078;2022-09-20T01:41:52;6.77;;;4.10;;
2299;SDS011;1158;48.750;9.078;2022-09-20T01:44:26;6.70;;;3.97;;
2299;SDS011;1158;48.750;9.078;2022-09-20T01:47:02;12.40;;;4.23;;
2299;SDS011;1158;48.750;9.078;2022-09-20T01:49:33;13.27;;;4.57;;
2299;SDS011;1158;48.750;9.078;2022-09-20T01:58:37;10.87;;;4.30;;
2299;SDS011;1158;48.750;9.078;2022-09-20T02:04:30;11.83;;;4.33;;
2299;SDS011;1158;48.750;9.078;2022-09-20T02:07:28;11.20;;;4.10;;
2299;SDS011;1158;48.750;9.078;2022-09-20T02:10:29;13.50;;;4.20;;
2299;SDS011;1158;48.750;9.078;2022-09-20T02:13:05;6.30;;;4.20;;
2299;SDS011;1158;48.750;9.078;2022-09-20T02:15:41;20.90;;;5.30;;
2299;SDS011;1158;48.750;9.078;2022-09-20T02:18:29;12.10;;;3.60;;
2299;SDS011;1158;48.750;9.078;2022-09-20T02:21:08;14.87;;;4.53;;
2299;SDS011;1158;48.750;9.078;2022-09-20T02:23:43;8.00;;;4.80;;
2299;SDS011;1158;48.750;9.078;2022-09-20T02:26:20;9.70;;;4.13;;
2299;SDS011;1158;48.750;9.078;2022-09-20T02:28:59;20.13;;;5.87;;
2299;SDS011;1158;48.750;9.078;2022-09-20T02:31:35;10.07;;;5.03;;
2299;SDS011;1158;48.750;9.078;2022-09-20T02:34:21;9.53;;;5.43;;
2299;SDS011;1158;48.750;9.078;2022-09-20T02:37:01;10.60;;;5.03;;
2299;SDS011;1158;48.750;9.078;2022-09-20T02:39:44;9.40;;;5.33;;
2299;SDS011;1158;48.750;9.078;2022-09-20T02:42:22;8.97;;;5.10;;
2299;SDS011;1158;48.750;9.078;2022-09-20T02:44:53;11.53;;;4.70;;
2299;SDS011;1158;48.750;9.078;2022-09-20T02:47:30;8.87;;;4.80;;
2299;SDS011;1158;48.750;9.078;2022-09-20T02:50:04;7.73;;;4.63;;
2299;SDS011;1158;48.750;9.078;2022-09-20T02:52:42;6.47;;;4.00;;
2299;SDS011;1158;48.750;9.078;2022-09-20T02:55:17;10.20;;;4.50;;
2299;SDS011;1158;48.750;9.078;2022-09-20T02:57:52;11.20;;;4.90;;
2299;SDS011;1158;48.750;9.078;2022-09-20T03:00:27;12.07;;;4.47;;
2299;SDS011;1158;48.750;9.078;2022-09-20T03:03:05;12.07;;;5.17;;
2299;SDS011;1158;48.750;9.078;2022-09-20T03:05:43;7.30;;;5.10;;
2299;SDS011;1158;48.750;9.078;2022-09-20T03:08:24;15.53;;;5.37;;
2299;SDS011;1158;48.750;9.078;2022-09-20T03:11:01;12.73;;;4.67;;
2299;SDS011;1158;48.750;9.078;2022-09-20T03:13:37;6.37;;;4.40;;
2299;SDS011;1158;48.750;9.078;2022-09-20T03:16:15;12.23;;;4.73;;
2299;SDS011;1158;48.750;9.078;2022-09-20T03:18:50;10.87;;;5.40;;
2299;SDS011;1158;48.750;9.078;2022-09-20T03:21:29;10.73;;;4.57;;
2299;SDS011;1158;48.750;9.078;2022-09-20T03:24:04;6.67;;;3.93;;
2299;SDS011;1158;48.750;9.078;2022-09-20T03:26:45;10.80;;;5.40;;
2299;SDS011;1158;48.750;9.078;2022-09-20T03:29:21;9.03;;;5.03;;
2299;SDS011;1158;48.750;9.078;2022-09-20T03:32:03;8.83;;;4.63;;
2299;SDS011;1158;48.750;9.078;2022-09-20T03:34:48;13.07;;;5.23;;
2299;SDS011;1158;48.750;9.078;2022-09-20T03:37:33;8.17;;;4.60;;
2299;SDS011;1158;48.750;9.078;2022-09-20T03:40:22;9.30;;;4.50;;
2299;SDS011;1158;48.750;9.078;2022-09-20T03:43:03;12.80;;;5.10;;
2299;SDS011;1158;48.750;9.078;2022-09-20T03:45:44;6.37;;;4.23;;
2299;SDS011;1158;48.750;9.078;2022-09-20T03:48:22;12.80;;;4.03;;
2299;SDS011;1158;48.750;9.078;2022-09-20T03:51:12;7.93;;;4.60;;
2299;SDS011;1158;48.750;9.078;2022-09-20T03:53:59;11.23;;;4.43;;
2299;SDS011;1158;48.750;9.078;2022-09-20T03:56:38;12.23;;;4.50;;
2299;SDS011;1158;48.750;9.078;2022-09-20T03:59:40;9.03;;;4.37;;
2299;SDS011;1158;48.750;9.078;2022-09-20T04:02:30;9.73;;;4.50;;
2299;SDS011;1158;48.750;9.078;2022-09-20T04:05:11;12.30;;;4.60;;
2299;SDS011;1158;48.750;9.078;2022-09-20T04:07:46;6.23;;;4.37;;
2299;SDS011;1158;48.750;9.078;2022-09-20T04:10:28;9.43;;;4.57;;
2299;SDS011;1158;48.750;9.078;2022-09-20T04:15:57;7.60;;;4.07;;
2299;SDS011;1158;48.750;9.078;2022-09-20T04:18:32;9.10;;;4.60;;
2299;SDS011;1158;48.750;9.078;2022-09-20T04:21:04;9.40;;;4.23;;
2299;SDS011;1158;48.750;9.078;2022-09-20T04:23:38;6.70;;;4.00;;
2299;SDS011;1158;48.750;9.078;2022-09-20T04:26:12;7.37;;;4.57;;
2299;SDS011;1158;48.750;9.078;2022-09-20T04:28:46;15.97;;;5.60;;
2299;SDS011;1158;48.750;9.078;2022-09-20T04:31:22;5.77;;;4.67;;
2299;SDS011;1158;48.750;9.078;2022-09-20T04:33:56;10.60;;;5.13;;
2299;SDS011;1158;48.750;9.078;2022-09-20T04:36:32;10.57;;;4.83;;
2299;SDS011;1158;48.750;9.078;2022-09-20T04:39:06;7.97;;;4.47;;
2299;SDS011;1158;48.750;9.078;2022-09-20T04:41:52;10.17;;;5.90;;
2299;SDS011;1158;48.750;9.078;2022-09-20T04:44:44;8.50;;;4.73;;
2299;SDS011;1158;48.750;9.078;2022-09-20T04:47:49;7.53;;;5.03;;
2299;SDS011;1158;48.750;9.078;2022-09-20T04:50:47;7.13;;;5.13;;
2299;SDS011;1158;48.750;9.078;2022-09-20T04:53:40;7.63;;;4.67;;
2299;SDS011;1158;48.750;9.078;2022-09-20T04:56:19;11.00;;;4.53;;
2299;SDS011;1158;48.750;9.078;2022-09-20T04:58:48;11.77;;;4.90;;
2299;SDS011;1158;48.750;9.078;2022-09-20T05:01:47;8.60;;;4.90;;
2299;SDS011;1158;48.750;9.078;2022-09-20T05:07:44;9.37;;;5.07;;
2299;SDS011;1158;48.750;9.078;2022-09-20T05:10:29;13.27;;;5.10;;
2299;SDS011;1158;48.750;9.078;2022-09-20T05:13:26;7.90;;;4.80;;
2299;SDS011;1158;48.750;9.078;2022-09-20T05:16:03;8.00;;;5.10;;
2299;SDS011;1158;48.750;9.078;2022-09-20T05:18:41;8.43;;;5.13;;
2299;SDS011;1158;48.750;9.078;2022-09-20T05:21:27;7.60;;;4.87;;
2299;SDS011;1158;48.750;9.078;2022-09-20T05:24:20;9.00;;;4.80;;
2299;SDS011;1158;48.750;9.078;2022-09-20T05:26:59;7.00;;;5.00;;
2299;SDS011;1158;48.750;9.078;2022-09-20T05:29:39;10.77;;;5.53;;
2299;SDS011;1158;48.750;9.078;2022-09-20T05:32:20;7.23;;;4.77;;
2299;SDS011;1158;48.750;9.078;2022-09-20T05:34:51;8.30;;;4.90;;
2299;SDS011;1158;48.750;9.078;2022-09-20T05:37:25;11.90;;;5.03;;
2299;SDS011;1158;48.750;9.078;2022-09-20T05:40:01;9.00;;;4.80;;
2299;SDS011;1158;48.750;9.078;2022-09-20T05:42:34;10.27;;;5.90;;
2299;SDS011;1158;48.750;9.078;2022-09-20T05:45:19;11.70;;;5.50;;
2299;SDS011;1158;48.750;9.078;2022-09-20T05:48:01;10.30;;;5.83;;
2299;SDS011;1158;48.750;9.078;2022-09-20T05:50:38;17.77;;;6.43;;
2299;SDS011;1158;48.750;9.078;2022-09-20T05:53:28;8.10;;;4.90;;
2299;SDS011;1158;48.750;9.078;2022-09-20T05:56:26;6.20;;;4.20;;
2299;SDS011;1158;48.750;9.078;2022-09-20T05:59:10;5.23;;;4.20;;
2299;SDS011;1158;48.750;9.078;2022-09-20T06:01:54;8.40;;;4.13;;
2299;SDS011;1158;48.750;9.078;2022-09-20T06:04:41;6.33;;;3.53;;
2299;SDS011;1158;48.750;9.078;2022-09-20T06:07:19;6.37;;;3.50;;
2299;SDS011;1158;48.750;9.078;2022-09-20T06:10:11;6.73;;;4.90;;
2299;SDS011;1158;48.750;9.078;2022-09-20T06:12:58;6.30;;;3.33;;
2299;SDS011;1158;48.750;9.078;2022-09-20T06:15:33;4.57;;;4.03;;
2299;SDS011;1158;48.750;9.078;2022-09-20T06:18:09;8.10;;;4.17;;
2299;SDS011;1158;48.750;9.078;2022-09-20T06:20:49;11.10;;;4.30;;
2299;SDS011;1158;48.750;9.078;2022-09-20T06:23:25;9.27;;;4.43;;
2299;SDS011;1158;48.750;9.078;2022-09-20T06:25:53;5.47;;;4.23;;
2299;SDS011;1158;48.750;9.078;2022-09-20T06:28:25;15.40;;;5.57;;
2299;SDS011;1158;48.750;9.078;2022-09-20T06:30:55;10.00;;;4.90;;
2299;SDS011;1158;48.750;9.078;2022-09-20T06:33:22;10.47;;;5.00;;
2299;SDS011;1158;48.750;9.078;2022-09-20T06:35:53;8.90;;;4.87;;
2299;SDS011;1158;48.750;9.078;2022-09-20T06:38:49;7.60;;;3.87;;
2299;SDS011;1158;48.750;9.078;2022-09-20T06:41:41;6.40;;;4.27;;
2299;SDS011;1158;48.750;9.078;2022-09-20T06:44:09;5.17;;;3.27;;
2299;SDS011;1158;48.750;9.078;2022-09-20T06:46:36;5.83;;;3.33;;
2299;SDS011;1158;48.750;9.078;2022-09-20T06:49:05;12.83;;;3.37;;
2299;SDS011;1158;48.750;9.078;2022-09-20T06:51:35;8.27;;;3.23;;
2299;SDS011;1158;48.750;9.078;2022-09-20T06:54:03;8.27;;;3.07;;
2299;SDS011;1158;48.750;9.078;2022-09-20T06:56:32;13.53;;;3.03;;
2299;SDS011;1158;48.750;9.078;2022-09-20T06:59:01;8.17;;;3.70;;
2299;SDS011;1158;48.750;9.078;2022-09-20T07:01:28;8.13;;;2.90;;
2299;SDS011;1158;48.750;9.078;2022-09-20T07:03:55;7.33;;;3.10;;
2299;SDS011;1158;48.750;9.078;2022-09-20T07:06:22;10.17;;;3.00;;
2299;SDS011;1158;48.750;9.078;2022-09-20T07:08:50;7.17;;;2.53;;
2299;SDS011;1158;48.750;9.078;2022-09-20T07:11:16;12.10;;;4.10;;
2299;SDS011;1158;48.750;9.078;2022-09-20T07:13:43;5.23;;;2.77;;
2299;SDS011;1158;48.750;9.078;2022-09-20T07:16:11;9.00;;;2.73;;
2299;SDS011;1158;48.750;9.078;2022-09-20T07:18:39;6.60;;;2.80;;
2299;SDS011;1158;48.750;9.078;2022-09-20T07:21:06;5.47;;;3.00;;
2299;SDS011;1158;48.750;9.078;2022-09-20T07:23:36;6.23;;;2.93;;
2299;SDS011;1158;48.750;9.078;2022-09-20T07:26:04;10.73;;;3.33;;
2299;SDS011;1158;48.750;9.078;2022-09-20T07:28:33;8.37;;;3.23;;
2299;SDS011;1158;48.750;9.078;2022-09-20T07:31:00;7.73;;;2.77;;
2299;SDS011;1158;48.750;9.078;2022-09-20T07:33:26;10.97;;;3.30;;
2299;SDS011;1158;48.750;9.078;2022-09-20T07:35:53;7.23;;;3.07;;
2299;SDS011;1158;48.750;9.078;2022-09-20T07:38:21;8.33;;;3.13;;
2299;SDS011;1158;48.750;9.078;2022-09-20T07:40:52;5.30;;;2.90;;
2299;SDS011;1158;48.750;9.078;2022-09-20T07:43:21;10.57;;;3.20;;
2299;SDS011;1158;48.750;9.078;2022-09-20T07:45:49;6.33;;;2.97;;
2299;SDS011;1158;48.750;9.078;2022-09-20T07:48:19;11.70;;;2.77;;
2299;SDS011;1158;48.750;9.078;2022-09-20T07:50:49;8.87;;;3.63;;
2299;SDS011;1158;48.750;9.078;2022-09-20T07:53:16;9.00;;;3.20;;
2299;SDS011;1158;48.750;9.078;2022-09-20T07:55:42;6.33;;;2.70;;
2299;SDS011;1158;48.750;9.078;2022-09-20T07:58:09;8.67;;;2.90;;
2299;SDS011;1158;48.750;9.078;2022-09-20T08:00:37;7.70;;;2.60;;
2299;SDS011;1158;48.750;9.078;2022-09-20T08:03:04;8.53;;;3.13;;
2299;SDS011;1158;48.750;9.078;2022-09-20T08:05:30;10.33;;;2.70;;
2299;SDS011;1158;48.750;9.078;2022-09-20T08:07:57;10.97;;;2.50;;
2299;SDS011;1158;48.750;9.078;2022-09-20T08:10:25;7.80;;;3.10;;
2299;SDS011;1158;48.750;9.078;2022-09-20T08:12:52;6.07;;;2.50;;
2299;SDS011;1158;48.750;9.078;2022-09-20T08:15:18;11.27;;;2.70;;
2299;SDS011;1158;48.750;9.078;2022-09-20T08:17:47;8.80;;;2.80;;
2299;SDS011;1158;48.750;9.078;2022-09-20T08:20:14;9.83;;;2.53;;
2299;SDS011;1158;48.750;9.078;2022-09-20T08:22:41;6.40;;;2.37;;
2299;SDS011;1158;48.750;9.078;2022-09-20T08:25:08;10.73;;;2.33;;
2299;SDS011;1158;48.750;9.078;2022-09-20T08:27:35;6.87;;;2.50;;
2299;SDS011;1158;48.750;9.078;2022-09-20T08:30:02;5.13;;;1.73;;
2299;SDS011;1158;48.750;9.078;2022-09-20T08:32:29;6.43;;;2.30;;
2299;SDS011;1158;48.750;9.078;2022-09-20T08:34:57;10.77;;;2.40;;
2299;SDS011;1158;48.750;9.078;2022-09-20T08:37:24;5.90;;;2.03;;
2299;SDS011;1158;48.750;9.078;2022-09-20T08:39:51;7.03;;;1.97;;
2299;SDS011;1158;48.750;9.078;2022-09-20T08:42:19;7.07;;;2.10;;
2299;SDS011;1158;48.750;9.078;2022-09-20T08:44:53;8.40;;;2.60;;
2299;SDS011;1158;48.750;9.078;2022-09-20T08:47:24;9.00;;;2.30;;
2299;SDS011;1158;48.750;9.078;2022-09-20T08:49:55;10.43;;;3.27;;
2299;SDS011;1158;48.750;9.078;2022-09-20T08:52:26;9.53;;;2.10;;
2299;SDS011;1158;48.750;9.078;2022-09-20T08:54:55;11.37;;;2.90;;
2299;SDS011;1158;48.750;9.078;2022-09-20T08:57:23;10.77;;;2.37;;
2299;SDS011;1158;48.750;9.078;2022-09-20T08:59:56;10.23;;;3.03;;
2299;SDS011;1158;48.750;9.078;2022-09-20T09:02:23;10.93;;;2.47;;
2299;SDS011;1158;48.750;9.078;2022-09-20T09:04:50;7.37;;;2.33;;
2299;SDS011;1158;48.750;9.078;2022-09-20T09:07:19;7.43;;;3.40;;
2299;SDS011;1158;48.750;9.078;2022-09-20T09:09:49;12.60;;;3.73;;
2299;SDS011;1158;48.750;9.078;2022-09-20T09:12:20;6.07;;;2.43;;
2299;SDS011;1158;48.750;9.078;2022-09-20T09:14:48;6.90;;;2.53;;
2299;SDS011;1158;48.750;9.078;2022-09-20T09:17:19;12.20;;;3.30;;
2299;SDS011;1158;48.750;9.078;2022-09-20T09:19:48;8.33;;;3.00;;
2299;SDS011;1158;48.750;9.078;2022-09-20T09:22:17;10.40;;;2.77;;
2299;SDS011;1158;48.750;9.078;2022-09-20T09:25:06;6.50;;;2.10;;
2299;SDS011;1158;48.750;9.078;2022-09-20T09:27:49;8.80;;;1.60;;
2299;SDS011;1158;48.750;9.078;2022-09-20T09:30:19;7.80;;;2.70;;
2299;SDS011;1158;48.750;9.078;2022-09-20T09:32:47;7.77;;;3.00;;
2299;SDS011;1158;48.750;9.078;2022-09-20T09:35:22;5.33;;;2.20;;
2299;SDS011;1158;48.750;9.078;2022-09-20T09:37:54;5.80;;;2.23;;
2299;SDS011;1158;48.750;9.078;2022-09-20T09:40:23;11.03;;;1.70;;
2299;SDS011;1158;48.750;9.078;2022-09-20T09:42:50;8.63;;;2.60;;
2299;SDS011;1158;48.750;9.078;2022-09-20T09:45:25;6.20;;;2.13;;
2299;SDS011;1158;48.750;9.078;2022-09-20T09:47:55;5.13;;;1.93;;
2299;SDS011;1158;48.750;9.078;2022-09-20T09:50:25;5.00;;;1.87;;
2299;SDS011;1158;48.750;9.078;2022-09-20T09:53:04;6.50;;;2.00;;
2299;SDS011;1158;48.750;9.078;2022-09-20T09:58:31;9.37;;;2.33;;
2299;SDS011;1158;48.750;9.078;2022-09-20T10:01:09;11.33;;;2.20;;
2299;SDS011;1158;48.750;9.078;2022-09-20T10:03:48;8.10;;;2.00;;
2299;SDS011;1158;48.750;9.078;2022-09-20T10:06:24;6.80;;;2.00;;
2299;SDS011;1158;48.750;9.078;2022-09-20T10:09:02;7.40;;;2.23;;
2299;SDS011;1158;48.750;9.078;2022-09-20T10:11:44;7.77;;;1.93;;
2299;SDS011;1158;48.750;9.078;2022-09-20T10:14:26;8.23;;;1.80;;
2299;SDS011;1158;48.750;9.078;2022-09-20T10:17:05;4.30;;;1.60;;
2299;SDS011;1158;48.750;9.078;2022-09-20T10:19:47;9.17;;;1.90;;
2299;SDS011;1158;48.750;9.078;2022-09-20T10:22:26;11.00;;;1.90;;
2299;SDS011;1158;48.750;9.078;2022-09-20T10:25:02;8.83;;;2.10;;
2299;SDS011;1158;48.750;9.078;2022-09-20T10:27:45;10.53;;;2.73;;
2299;SDS011;1158;48.750;9.078;2022-09-20T10:30:22;10.77;;;2.33;;
2299;SDS011;1158;48.750;9.078;2022-09-20T10:33:00;6.43;;;1.90;;
2299;SDS011;1158;48.750;9.078;2022-09-20T10:35:35;6.97;;;2.13;;
2299;SDS011;1158;48.750;9.078;2022-09-20T10:38:16;7.17;;;1.97;;
2299;SDS011;1158;48.750;9.078;2022-09-20T10:40:57;5.20;;;2.10;;
2299;SDS011;1158;48.750;9.078;2022-09-20T10:43:54;12.20;;;2.27;;
2299;SDS011;1158;48.750;9.078;2022-09-20T10:46:30;5.90;;;2.20;;
2299;SDS011;1158;48.750;9.078;2022-09-20T10:49:05;5.93;;;2.00;;
2299;SDS011;1158;48.750;9.078;2022-09-20T10:51:50;13.37;;;2.53;;
2299;SDS011;1158;48.750;9.078;2022-09-20T10:54:30;6.13;;;1.97;;
2299;SDS011;1158;48.750;9.078;2022-09-20T10:57:10;7.70;;;2.23;;
2299;SDS011;1158;48.750;9.078;2022-09-20T10:59:46;6.93;;;2.37;;
2299;SDS011;1158;48.750;9.078;2022-09-20T11:02:26;3.97;;;2.60;;
2299;SDS011;1158;48.750;9.078;2022-09-20T11:05:12;7.60;;;2.37;;
2299;SDS011;1158;48.750;9.078;2022-09-20T11:07:49;10.37;;;2.50;;
2299;SDS011;1158;48.750;9.078;2022-09-20T11:10:24;6.90;;;2.13;;
2299;SDS011;1158;48.750;9.078;2022-09-20T11:12:56;8.27;;;2.63;;
2299;SDS011;1158;48.750;9.078;2022-09-20T11:15:25;4.70;;;1.83;;
2299;SDS011;1158;48.750;9.078;2022-09-20T11:17:58;8.73;;;2.70;;
2299;SDS011;1158;48.750;9.078;2022-09-20T11:20:32;6.43;;;1.97;;
2299;SDS011;1158;48.750;9.078;2022-09-20T11:23:03;4.80;;;1.80;;
2299;SDS011;1158;48.750;9.078;2022-09-20T11:25:36;7.83;;;2.10;;
2299;SDS011;1158;48.750;9.078;2022-09-20T11:28:10;4.20;;;1.80;;
2299;SDS011;1158;48.750;9.078;2022-09-20T11:30:45;6.73;;;1.70;;
2299;SDS011;1158;48.750;9.078;2022-09-20T11:33:20;4.90;;;1.73;;
2299;SDS011;1158;48.750;9.078;2022-09-20T11:35:50;7.40;;;2.07;;
2299;SDS011;1158;48.750;9.078;2022-09-20T11:38:20;4.50;;;2.00;;
2299;SDS011;1158;48.750;9.078;2022-09-20T11:40:51;4.30;;;1.93;;
2299;SDS011;1158;48.750;9.078;2022-09-20T11:43:23;7.53;;;2.10;;
2299;SDS011;1158;48.750;9.078;2022-09-20T11:45:55;8.90;;;2.53;;
2299;SDS011;1158;48.750;9.078;2022-09-20T11:48:26;5.60;;;2.10;;
2299;SDS011;1158;48.750;9.078;2022-09-20T11:51:07;4.60;;;1.70;;
2299;SDS011;1158;48.750;9.078;2022-09-20T11:53:50;6.50;;;2.27;;
2299;SDS011;1158;48.750;9.078;2022-09-20T11:56:36;9.00;;;2.43;;
2299;SDS011;1158;48.750;9.078;2022-09-20T11:59:06;5.90;;;2.80;;
2299;SDS011;1158;48.750;9.078;2022-09-20T12:01:48;5.93;;;1.83;;
2299;SDS011;1158;48.750;9.078;2022-09-20T12:04:21;10.57;;;2.17;;
2299;SDS011;1158;48.750;9.078;2022-09-20T12:06:55;6.17;;;2.63;;
2299;SDS011;1158;48.750;9.078;2022-09-20T12:09:27;5.47;;;2.20;;
2299;SDS011;1158;48.750;9.078;2022-09-20T12:11:56;4.37;;;2.07;;
2299;SDS011;1158;48.750;9.078;2022-09-20T12:14:26;5.43;;;1.83;;
2299;SDS011;1158;48.750;9.078;2022-09-20T12:16:56;7.57;;;1.93;;
2299;SDS011;1158;48.750;9.078;2022-09-20T12:19:36;4.00;;;2.00;;
2299;SDS011;1158;48.750;9.078;2022-09-20T12:22:25;3.70;;;2.10;;
2299;SDS011;1158;48.750;9.078;2022-09-20T12:27:57;4.37;;;2.40;;
2299;SDS011;1158;48.750;9.078;2022-09-20T12:30:25;10.63;;;2.70;;
2299;SDS011;1158;48.750;9.078;2022-09-20T12:32:57;9.50;;;2.70;;
2299;SDS011;1158;48.750;9.078;2022-09-20T12:38:26;3.53;;;2.30;;
2299;SDS011;1158;48.750;9.078;2022-09-20T12:40:58;3.60;;;1.93;;
2299;SDS011;1158;48.750;9.078;2022-09-20T12:43:26;3.17;;;1.90;;
2299;SDS011;1158;48.750;9.078;2022-09-20T12:45:55;6.87;;;2.00;;
2299;SDS011;1158;48.750;9.078;2022-09-20T12:48:23;6.40;;;2.23;;
2299;SDS011;1158;48.750;9.078;2022-09-20T12:50:59;4.93;;;2.40;;
2299;SDS011;1158;48.750;9.078;2022-09-20T12:53:56;5.30;;;2.03;;
2299;SDS011;1158;48.750;9.078;2022-09-20T12:56:25;4.53;;;2.00;;
2299;SDS011;1158;48.750;9.078;2022-09-20T12:58:53;4.80;;;1.90;;
2299;SDS011;1158;48.750;9.078;2022-09-20T13:01:30;3.83;;;1.87;;
2299;SDS011;1158;48.750;9.078;2022-09-20T13:13:03;5.90;;;2.47;;
2299;SDS011;1158;48.750;9.078;2022-09-20T13:15:38;2.80;;;1.70;;
2299;SDS011;1158;48.750;9.078;2022-09-20T13:18:10;5.00;;;1.93;;
2299;SDS011;1158;48.750;9.078;2022-09-20T13:20:39;3.83;;;1.80;;
2299;SDS011;1158;48.750;9.078;2022-09-20T13:23:08;5.50;;;2.07;;
2299;SDS011;1158;48.750;9.078;2022-09-20T13:25:44;7.10;;;2.23;;
2299;SDS011;1158;48.750;9.078;2022-09-20T13:28:14;5.10;;;2.30;;
2299;SDS011;1158;48.750;9.078;2022-09-20T13:30:49;7.60;;;2.30;;
2299;SDS011;1158;48.750;9.078;2022-09-20T13:33:20;5.03;;;2.33;;
2299;SDS011;1158;48.750;9.078;2022-09-20T13:35:48;5.40;;;2.23;;
2299;SDS011;1158;48.750;9.078;2022-09-20T13:38:18;3.80;;;2.40;;
2299;SDS011;1158;48.750;9.078;2022-09-20T13:40:48;8.30;;;2.00;;
2299;SDS011;1158;48.750;9.078;2022-09-20T13:43:18;5.63;;;2.40;;
2299;SDS011;1158;48.750;9.078;2022-09-20T13:45:52;6.80;;;2.70;;
2299;SDS011;1158;48.750;9.078;2022-09-20T13:48:24;3.87;;;1.63;;
2299;SDS011;1158;48.750;9.078;2022-09-20T13:50:51;7.13;;;2.10;;
2299;SDS011;1158;48.750;9.078;2022-09-20T13:53:20;5.03;;;2.30;;
2299;SDS011;1158;48.750;9.078;2022-09-20T13:55:48;3.87;;;1.90;;
2299;SDS011;1158;48.750;9.078;2022-09-20T13:58:16;4.43;;;2.20;;
2299;SDS011;1158;48.750;9.078;2022-09-20T14:00:46;4.33;;;2.17;;
2299;SDS011;1158;48.750;9.078;2022-09-20T14:03:16;4.70;;;1.70;;
2299;SDS011;1158;48.750;9.078;2022-09-20T14:05:46;7.23;;;2.20;;
2299;SDS011;1158;48.750;9.078;2022-09-20T14:08:17;4.27;;;2.07;;
2299;SDS011;1158;48.750;9.078;2022-09-20T14:10:48;10.10;;;2.20;;
2299;SDS011;1158;48.750;9.078;2022-09-20T14:13:27;6.80;;;2.20;;
2299;SDS011;1158;48.750;9.078;2022-09-20T14:15:58;4.40;;;2.00;;
2299;SDS011;1158;48.750;9.078;2022-09-20T14:18:25;3.70;;;2.20;;
2299;SDS011;1158;48.750;9.078;2022-09-20T14:20:54;4.33;;;1.83;;
2299;SDS011;1158;48.750;9.078;2022-09-20T14:23:23;6.47;;;2.63;;
2299;SDS011;1158;48.750;9.078;2022-09-20T14:26:07;4.93;;;1.87;;
2299;SDS011;1158;48.750;9.078;2022-09-20T14:28:46;4.30;;;1.83;;
2299;SDS011;1158;48.750;9.078;2022-09-20T14:31:13;5.77;;;1.73;;
2299;SDS011;1158;48.750;9.078;2022-09-20T14:33:44;7.67;;;2.03;;
2299;SDS011;1158;48.750;9.078;2022-09-20T14:36:15;4.13;;;1.70;;
2299;SDS011;1158;48.750;9.078;2022-09-20T14:38:46;9.90;;;2.10;;
2299;SDS011;1158;48.750;9.078;2022-09-20T14:41:22;3.20;;;1.77;;
2299;SDS011;1158;48.750;9.078;2022-09-20T14:43:52;3.07;;;1.80;;
2299;SDS011;1158;48.750;9.078;2022-09-20T14:46:26;5.40;;;2.67;;
2299;SDS011;1158;48.750;9.078;2022-09-20T14:51:46;3.00;;;2.33;;
2299;SDS011;1158;48.750;9.078;2022-09-20T14:54:22;4.73;;;2.60;;
2299;SDS011;1158;48.750;9.078;2022-09-20T14:56:53;8.27;;;3.30;;
2299;SDS011;1158;48.750;9.078;2022-09-20T14:59:23;4.27;;;2.87;;
2299;SDS011;1158;48.750;9.078;2022-09-20T15:01:55;3.53;;;2.20;;
2299;SDS011;1158;48.750;9.078;2022-09-20T15:04:25;2.90;;;2.10;;
2299;SDS011;1158;48.750;9.078;2022-09-20T15:06:54;4.63;;;3.10;;
2299;SDS011;1158;48.750;9.078;2022-09-20T15:09:22;2.73;;;2.10;;
2299;SDS011;1158;48.750;9.078;2022-09-20T15:11:59;3.37;;;2.23;;
2299;SDS011;1158;48.750;9.078;2022-09-20T15:14:27;4.57;;;1.87;;
2299;SDS011;1158;48.750;9.078;2022-09-20T15:16:54;4.00;;;1.60;;
2299;SDS011;1158;48.750;9.078;2022-09-20T15:19:22;3.70;;;1.90;;
2299;SDS011;1158;48.750;9.078;2022-09-20T15:21:48;4.20;;;1.60;;
2299;SDS011;1158;48.750;9.078;2022-09-20T15:24:16;3.00;;;1.53;;
2299;SDS011;1158;48.750;9.078;2022-09-20T15:26:43;5.93;;;1.43;;
2299;SDS011;1158;48.750;9.078;2022-09-20T15:29:11;2.77;;;1.57;;
2299;SDS011;1158;48.750;9.078;2022-09-20T15:31:40;3.13;;;1.80;;
2299;SDS011;1158;48.750;9.078;2022-09-20T15:34:07;2.70;;;1.53;;
2299;SDS011;1158;48.750;9.078;2022-09-20T15:36:34;4.10;;;1.83;;
2299;SDS011;1158;48.750;9.078;2022-09-20T15:39:00;4.40;;;2.03;;
2299;SDS011;1158;48.750;9.078;2022-09-20T15:41:28;3.90;;;2.13;;
2299;SDS011;1158;48.750;9.078;2022-09-20T15:43:56;3.97;;;2.40;;
2299;SDS011;1158;48.750;9.078;2022-09-20T15:46:23;3.10;;;1.60;;
2299;SDS011;1158;48.750;9.078;2022-09-20T15:48:51;3.30;;;2.00;;
2299;SDS011;1158;48.750;9.078;2022-09-20T15:51:18;4.57;;;2.37;;
2299;SDS011;1158;48.750;9.078;2022-09-20T15:53:45;4.30;;;2.40;;
2299;SDS011;1158;48.750;9.078;2022-09-20T15:56:14;2.73;;;1.80;;
2299;SDS011;1158;48.750;9.078;2022-09-20T15:58:45;2.33;;;1.53;;
2299;SDS011;1158;48.750;9.078;2022-09-20T16:01:15;4.30;;;2.40;;
2299;SDS011;1158;48.750;9.078;2022-09-20T16:03:43;5.70;;;3.10;;
2299;SDS011;1158;48.750;9.078;2022-09-20T16:06:11;3.50;;;2.30;;
2299;SDS011;1158;48.750;9.078;2022-09-20T16:08:39;6.47;;;3.30;;
2299;SDS011;1158;48.750;9.078;2022-09-20T16:11:06;4.30;;;2.23;;
2299;SDS011;1158;48.750;9.078;2022-09-20T16:13:34;7.70;;;4.57;;
2299;SDS011;1158;48.750;9.078;2022-09-20T16:16:03;6.80;;;4.50;;
2299;SDS011;1158;48.750;9.078;2022-09-20T16:18:31;7.67;;;3.30;;
2299;SDS011;1158;48.750;9.078;2022-09-20T16:21:17;7.13;;;3.80;;
2299;SDS011;1158;48.750;9.078;2022-09-20T16:23:45;4.27;;;2.20;;
2299;SDS011;1158;48.750;9.078;2022-09-20T16:26:13;9.53;;;4.87;;
2299;SDS011;1158;48.750;9.078;2022-09-20T16:28:41;6.20;;;2.80;;
2299;SDS011;1158;48.750;9.078;2022-09-20T16:34:04;7.43;;;2.70;;